Fort Walton Beach, Florida
Current Conditions -  °F | °C
As of 12:56 AM on Thursday 23 Oct 2014 (Local Time) from KQBL Reporting Station
Broken Clouds Broken Clouds  
Wind Chill: 56°   Ceiling: 24000
Heat Index: 56°   Visibility: 10mi
Dew Point: 45°   Wind: 2mph
Humidity: 68%   Direction: 360°N
Pressure: 30.07"   Gusts: NA
Location:  30.4°N, 86.61°W
Report Text: KQBL 230556Z AUTO 36002KT 10SM BKN240 13/07 A3007 RMK AO2 SLP189 T01310073 10200 20128 57010
Loading
Personal Weather Stations






























Interactive Weather Map
Tropical Storm Tracking
New forecast layout! Learn more

10-Day Weather Forecast

Advertisements
Track Severe Weather on mobile